sensor_id;sensor_type;location;lat;lon;timestamp;temperature;humidity
11840;DHT22;5979;50.800;4.904;2023-01-31T00:01:15;3.70;99.90
11840;DHT22;5979;50.800;4.904;2023-01-31T00:03:41;3.70;99.90
11840;DHT22;5979;50.800;4.904;2023-01-31T00:06:23;3.70;99.90
11840;DHT22;5979;50.800;4.904;2023-01-31T00:08:50;3.70;99.90
11840;DHT22;5979;50.800;4.904;2023-01-31T00:11:18;3.80;99.90
11840;DHT22;5979;50.800;4.904;2023-01-31T00:13:44;3.80;99.90
11840;DHT22;5979;50.800;4.904;2023-01-31T00:16:11;3.80;99.90
11840;DHT22;5979;50.800;4.904;2023-01-31T00:18:37;3.80;99.90
11840;DHT22;5979;50.800;4.904;2023-01-31T00:21:09;3.90;99.90
11840;DHT22;5979;50.800;4.904;2023-01-31T00:23:35;4.00;99.90
11840;DHT22;5979;50.800;4.904;2023-01-31T00:26:12;4.00;99.90
11840;DHT22;5979;50.800;4.904;2023-01-31T00:28:39;4.00;99.90
11840;DHT22;5979;50.800;4.904;2023-01-31T00:31:05;4.00;99.90
11840;DHT22;5979;50.800;4.904;2023-01-31T00:33:32;4.00;99.90
11840;DHT22;5979;50.800;4.904;2023-01-31T00:35:58;4.00;99.90
11840;DHT22;5979;50.800;4.904;2023-01-31T00:38:24;3.90;99.90
11840;DHT22;5979;50.800;4.904;2023-01-31T00:40:53;3.90;99.90
11840;DHT22;5979;50.800;4.904;2023-01-31T00:43:20;3.90;99.90
11840;DHT22;5979;50.800;4.904;2023-01-31T00:45:46;3.90;99.90
11840;DHT22;5979;50.800;4.904;2023-01-31T00:48:11;3.80;99.90
11840;DHT22;5979;50.800;4.904;2023-01-31T00:50:37;3.80;99.90
11840;DHT22;5979;50.800;4.904;2023-01-31T00:53:03;3.80;99.90
11840;DHT22;5979;50.800;4.904;2023-01-31T00:55:29;3.80;99.90
11840;DHT22;5979;50.800;4.904;2023-01-31T00:57:54;3.70;99.90
11840;DHT22;5979;50.800;4.904;2023-01-31T01:00:20;3.70;99.90
11840;DHT22;5979;50.800;4.904;2023-01-31T01:02:46;3.80;99.90
11840;DHT22;5979;50.800;4.904;2023-01-31T01:05:12;3.70;99.90
11840;DHT22;5979;50.800;4.904;2023-01-31T01:07:38;3.70;99.90
11840;DHT22;5979;50.800;4.904;2023-01-31T01:10:04;3.70;99.90
11840;DHT22;5979;50.800;4.904;2023-01-31T01:12:30;3.70;99.90
11840;DHT22;5979;50.800;4.904;2023-01-31T01:14:56;3.60;99.90
11840;DHT22;5979;50.800;4.904;2023-01-31T01:17:22;3.60;99.90
11840;DHT22;5979;50.800;4.904;2023-01-31T01:19:47;3.60;99.90
11840;DHT22;5979;50.800;4.904;2023-01-31T01:22:13;3.60;99.90
11840;DHT22;5979;50.800;4.904;2023-01-31T01:24:42;3.60;99.90
11840;DHT22;5979;50.800;4.904;2023-01-31T01:27:08;3.50;99.90
11840;DHT22;5979;50.800;4.904;2023-01-31T01:29:34;3.50;99.90
11840;DHT22;5979;50.800;4.904;2023-01-31T01:32:00;3.50;99.90
11840;DHT22;5979;50.800;4.904;2023-01-31T01:34:26;3.50;99.90
11840;DHT22;5979;50.800;4.904;2023-01-31T01:36:52;3.50;99.90
11840;DHT22;5979;50.800;4.904;2023-01-31T01:39:18;3.50;99.90
11840;DHT22;5979;50.800;4.904;2023-01-31T01:41:45;3.50;99.90
11840;DHT22;5979;50.800;4.904;2023-01-31T01:47:44;3.40;99.90
11840;DHT22;5979;50.800;4.904;2023-01-31T01:50:19;3.40;99.90
11840;DHT22;5979;50.800;4.904;2023-01-31T01:52:51;3.40;99.90
11840;DHT22;5979;50.800;4.904;2023-01-31T01:55:36;3.40;99.90
11840;DHT22;5979;50.800;4.904;2023-01-31T01:58:16;3.40;99.90
11840;DHT22;5979;50.800;4.904;2023-01-31T02:00:44;3.30;99.90
11840;DHT22;5979;50.800;4.904;2023-01-31T02:03:11;3.40;99.90
11840;DHT22;5979;50.800;4.904;2023-01-31T02:05:50;3.30;99.90
11840;DHT22;5979;50.800;4.904;2023-01-31T02:08:20;3.30;99.90
11840;DHT22;5979;50.800;4.904;2023-01-31T02:11:00;3.30;99.90
11840;DHT22;5979;50.800;4.904;2023-01-31T02:13:27;3.30;99.90
11840;DHT22;5979;50.800;4.904;2023-01-31T02:15:55;3.20;99.90
11840;DHT22;5979;50.800;4.904;2023-01-31T02:18:22;3.20;99.90
11840;DHT22;5979;50.800;4.904;2023-01-31T02:21:26;3.20;99.90
11840;DHT22;5979;50.800;4.904;2023-01-31T02:24:28;3.20;99.90
11840;DHT22;5979;50.800;4.904;2023-01-31T02:27:28;3.10;99.90
11840;DHT22;5979;50.800;4.904;2023-01-31T02:44:05;2.80;99.90
11840;DHT22;5979;50.800;4.904;2023-01-31T02:49:55;2.80;99.90
11840;DHT22;5979;50.800;4.904;2023-01-31T02:52:40;2.80;99.90
11840;DHT22;5979;50.800;4.904;2023-01-31T02:55:40;2.70;99.90
11840;DHT22;5979;50.800;4.904;2023-01-31T02:58:24;2.70;99.90
11840;DHT22;5979;50.800;4.904;2023-01-31T03:00:56;2.70;99.90
11840;DHT22;5979;50.800;4.904;2023-01-31T03:03:28;2.70;99.90
11840;DHT22;5979;50.800;4.904;2023-01-31T03:09:12;2.60;99.90
11840;DHT22;5979;50.800;4.904;2023-01-31T03:14:15;2.60;99.90
11840;DHT22;5979;50.800;4.904;2023-01-31T03:20:18;2.60;99.90
11840;DHT22;5979;50.800;4.904;2023-01-31T03:25:25;2.60;99.90
11840;DHT22;5979;50.800;4.904;2023-01-31T03:27:54;2.60;99.90
11840;DHT22;5979;50.800;4.904;2023-01-31T03:30:31;2.60;99.90
11840;DHT22;5979;50.800;4.904;2023-01-31T03:33:05;2.60;99.90
11840;DHT22;5979;50.800;4.904;2023-01-31T03:35:34;2.60;99.90
11840;DHT22;5979;50.800;4.904;2023-01-31T03:38:15;2.60;99.90
11840;DHT22;5979;50.800;4.904;2023-01-31T03:40:55;2.60;99.90
11840;DHT22;5979;50.800;4.904;2023-01-31T03:43:54;2.60;99.90
11840;DHT22;5979;50.800;4.904;2023-01-31T03:46:28;2.60;99.90
11840;DHT22;5979;50.800;4.904;2023-01-31T03:48:57;2.60;99.90
11840;DHT22;5979;50.800;4.904;2023-01-31T03:51:28;2.60;99.90
11840;DHT22;5979;50.800;4.904;2023-01-31T03:54:03;2.60;99.90
11840;DHT22;5979;50.800;4.904;2023-01-31T03:56:38;2.60;99.90
11840;DHT22;5979;50.800;4.904;2023-01-31T03:59:19;2.50;99.90
11840;DHT22;5979;50.800;4.904;2023-01-31T04:01:49;2.50;99.90
11840;DHT22;5979;50.800;4.904;2023-01-31T04:04:36;2.50;99.90
11840;DHT22;5979;50.800;4.904;2023-01-31T04:07:03;2.50;99.90
11840;DHT22;5979;50.800;4.904;2023-01-31T04:09:31;2.50;99.90
11840;DHT22;5979;50.800;4.904;2023-01-31T04:11:59;2.50;99.90
11840;DHT22;5979;50.800;4.904;2023-01-31T04:14:26;2.50;99.90
11840;DHT22;5979;50.800;4.904;2023-01-31T04:16:52;2.50;99.90
11840;DHT22;5979;50.800;4.904;2023-01-31T04:19:17;2.50;99.90
11840;DHT22;5979;50.800;4.904;2023-01-31T04:21:43;2.40;99.90
11840;DHT22;5979;50.800;4.904;2023-01-31T04:24:09;2.40;99.90
11840;DHT22;5979;50.800;4.904;2023-01-31T04:26:35;2.40;99.90
11840;DHT22;5979;50.800;4.904;2023-01-31T04:29:01;2.30;99.90
11840;DHT22;5979;50.800;4.904;2023-01-31T04:31:27;2.30;99.90
11840;DHT22;5979;50.800;4.904;2023-01-31T04:33:52;2.30;99.90
11840;DHT22;5979;50.800;4.904;2023-01-31T04:36:18;2.30;99.90
11840;DHT22;5979;50.800;4.904;2023-01-31T04:38:44;2.30;99.90
11840;DHT22;5979;50.800;4.904;2023-01-31T04:41:09;2.40;99.90
11840;DHT22;5979;50.800;4.904;2023-01-31T04:43:35;2.40;99.90
11840;DHT22;5979;50.800;4.904;2023-01-31T04:46:01;2.40;99.90
11840;DHT22;5979;50.800;4.904;2023-01-31T04:48:26;2.40;99.90
11840;DHT22;5979;50.800;4.904;2023-01-31T04:50:52;2.40;99.90
11840;DHT22;5979;50.800;4.904;2023-01-31T04:53:18;2.40;99.90
11840;DHT22;5979;50.800;4.904;2023-01-31T04:55:46;2.40;99.90
11840;DHT22;5979;50.800;4.904;2023-01-31T04:58:12;2.40;99.90
11840;DHT22;5979;50.800;4.904;2023-01-31T05:00:37;2.40;99.90
11840;DHT22;5979;50.800;4.904;2023-01-31T05:03:03;2.40;99.90
11840;DHT22;5979;50.800;4.904;2023-01-31T05:05:29;2.40;99.90
11840;DHT22;5979;50.800;4.904;2023-01-31T05:07:55;2.40;99.90
11840;DHT22;5979;50.800;4.904;2023-01-31T05:10:20;2.40;99.90
11840;DHT22;5979;50.800;4.904;2023-01-31T05:12:46;2.50;99.90
11840;DHT22;5979;50.800;4.904;2023-01-31T05:15:12;2.50;99.90
11840;DHT22;5979;50.800;4.904;2023-01-31T05:17:38;2.50;99.90
11840;DHT22;5979;50.800;4.904;2023-01-31T05:20:04;2.50;99.90
11840;DHT22;5979;50.800;4.904;2023-01-31T05:22:30;2.50;99.90
11840;DHT22;5979;50.800;4.904;2023-01-31T05:24:56;2.60;99.90
11840;DHT22;5979;50.800;4.904;2023-01-31T05:27:21;2.60;99.90
11840;DHT22;5979;50.800;4.904;2023-01-31T05:29:47;2.60;99.90
11840;DHT22;5979;50.800;4.904;2023-01-31T05:32:13;2.60;99.90
11840;DHT22;5979;50.800;4.904;2023-01-31T05:34:39;2.70;99.90
11840;DHT22;5979;50.800;4.904;2023-01-31T05:37:05;2.70;99.90
11840;DHT22;5979;50.800;4.904;2023-01-31T05:39:31;2.70;99.90
11840;DHT22;5979;50.800;4.904;2023-01-31T05:41:57;2.70;99.90
11840;DHT22;5979;50.800;4.904;2023-01-31T05:44:23;2.80;99.90
11840;DHT22;5979;50.800;4.904;2023-01-31T05:46:49;2.80;99.90
11840;DHT22;5979;50.800;4.904;2023-01-31T05:49:15;2.70;99.90
11840;DHT22;5979;50.800;4.904;2023-01-31T05:51:41;2.80;99.90
11840;DHT22;5979;50.800;4.904;2023-01-31T05:54:07;2.80;99.90
11840;DHT22;5979;50.800;4.904;2023-01-31T05:56:34;2.80;99.90
11840;DHT22;5979;50.800;4.904;2023-01-31T05:59:00;2.80;99.90
11840;DHT22;5979;50.800;4.904;2023-01-31T06:01:28;2.80;99.90
11840;DHT22;5979;50.800;4.904;2023-01-31T06:03:54;2.80;99.90
11840;DHT22;5979;50.800;4.904;2023-01-31T06:06:20;2.80;99.90
11840;DHT22;5979;50.800;4.904;2023-01-31T06:08:46;2.80;99.90
11840;DHT22;5979;50.800;4.904;2023-01-31T06:11:13;2.80;99.90
11840;DHT22;5979;50.800;4.904;2023-01-31T06:13:40;2.90;99.90
11840;DHT22;5979;50.800;4.904;2023-01-31T06:16:08;2.90;99.90
11840;DHT22;5979;50.800;4.904;2023-01-31T06:18:34;2.90;99.90
11840;DHT22;5979;50.800;4.904;2023-01-31T06:21:00;2.90;99.90
11840;DHT22;5979;50.800;4.904;2023-01-31T06:23:26;2.90;99.90
11840;DHT22;5979;50.800;4.904;2023-01-31T06:25:52;2.90;99.90
11840;DHT22;5979;50.800;4.904;2023-01-31T06:28:18;2.90;99.90
11840;DHT22;5979;50.800;4.904;2023-01-31T06:30:44;2.90;99.90
11840;DHT22;5979;50.800;4.904;2023-01-31T06:33:11;2.90;99.90
11840;DHT22;5979;50.800;4.904;2023-01-31T06:35:37;2.90;99.90
11840;DHT22;5979;50.800;4.904;2023-01-31T06:38:03;2.90;99.90
11840;DHT22;5979;50.800;4.904;2023-01-31T06:40:28;2.90;99.90
11840;DHT22;5979;50.800;4.904;2023-01-31T06:42:55;3.00;99.90
11840;DHT22;5979;50.800;4.904;2023-01-31T06:45:21;3.00;99.90
11840;DHT22;5979;50.800;4.904;2023-01-31T06:47:47;3.10;99.90
11840;DHT22;5979;50.800;4.904;2023-01-31T06:50:13;3.10;99.90
11840;DHT22;5979;50.800;4.904;2023-01-31T06:52:39;3.10;99.90
11840;DHT22;5979;50.800;4.904;2023-01-31T06:55:05;3.20;99.90
11840;DHT22;5979;50.800;4.904;2023-01-31T06:57:31;3.20;99.90
11840;DHT22;5979;50.800;4.904;2023-01-31T06:59:57;3.30;99.90
11840;DHT22;5979;50.800;4.904;2023-01-31T07:02:23;3.30;99.90
11840;DHT22;5979;50.800;4.904;2023-01-31T07:04:49;3.40;99.90
11840;DHT22;5979;50.800;4.904;2023-01-31T07:07:15;3.40;99.90
11840;DHT22;5979;50.800;4.904;2023-01-31T07:09:40;3.40;99.90
11840;DHT22;5979;50.800;4.904;2023-01-31T07:12:06;3.40;99.90
11840;DHT22;5979;50.800;4.904;2023-01-31T07:14:32;3.50;99.90
11840;DHT22;5979;50.800;4.904;2023-01-31T07:16:57;3.50;99.90
11840;DHT22;5979;50.800;4.904;2023-01-31T07:19:23;3.50;99.90
11840;DHT22;5979;50.800;4.904;2023-01-31T07:21:49;3.50;99.90
11840;DHT22;5979;50.800;4.904;2023-01-31T07:24:15;3.60;99.90
11840;DHT22;5979;50.800;4.904;2023-01-31T07:26:41;3.60;99.90
11840;DHT22;5979;50.800;4.904;2023-01-31T07:29:07;3.60;99.90
11840;DHT22;5979;50.800;4.904;2023-01-31T07:31:33;3.60;99.90
11840;DHT22;5979;50.800;4.904;2023-01-31T07:33:58;3.60;99.90
11840;DHT22;5979;50.800;4.904;2023-01-31T07:36:25;3.60;99.90
11840;DHT22;5979;50.800;4.904;2023-01-31T07:38:55;3.60;99.90
11840;DHT22;5979;50.800;4.904;2023-01-31T07:41:24;3.70;99.90
11840;DHT22;5979;50.800;4.904;2023-01-31T07:43:51;3.70;99.90
11840;DHT22;5979;50.800;4.904;2023-01-31T07:46:17;3.70;99.90
11840;DHT22;5979;50.800;4.904;2023-01-31T07:48:43;3.80;99.90
11840;DHT22;5979;50.800;4.904;2023-01-31T07:51:09;3.80;99.90
11840;DHT22;5979;50.800;4.904;2023-01-31T07:53:37;3.80;99.90
11840;DHT22;5979;50.800;4.904;2023-01-31T07:56:13;3.80;99.90
11840;DHT22;5979;50.800;4.904;2023-01-31T07:58:40;3.90;99.90
11840;DHT22;5979;50.800;4.904;2023-01-31T08:01:06;3.90;99.90
11840;DHT22;5979;50.800;4.904;2023-01-31T08:03:51;3.90;99.90
11840;DHT22;5979;50.800;4.904;2023-01-31T08:06:17;4.00;99.90
11840;DHT22;5979;50.800;4.904;2023-01-31T08:08:44;4.00;99.90
11840;DHT22;5979;50.800;4.904;2023-01-31T08:11:10;4.00;99.90
11840;DHT22;5979;50.800;4.904;2023-01-31T08:13:36;4.00;99.90
11840;DHT22;5979;50.800;4.904;2023-01-31T08:16:04;4.00;99.90
11840;DHT22;5979;50.800;4.904;2023-01-31T08:18:30;4.00;99.90
11840;DHT22;5979;50.800;4.904;2023-01-31T08:20:57;4.00;99.90
11840;DHT22;5979;50.800;4.904;2023-01-31T08:23:23;4.10;99.90
11840;DHT22;5979;50.800;4.904;2023-01-31T08:25:48;4.10;99.90
11840;DHT22;5979;50.800;4.904;2023-01-31T08:28:14;4.10;99.90
11840;DHT22;5979;50.800;4.904;2023-01-31T08:30:41;4.20;99.90
11840;DHT22;5979;50.800;4.904;2023-01-31T08:33:08;4.20;99.90
11840;DHT22;5979;50.800;4.904;2023-01-31T08:35:35;4.30;99.90
11840;DHT22;5979;50.800;4.904;2023-01-31T08:38:01;4.30;99.90
11840;DHT22;5979;50.800;4.904;2023-01-31T08:40:26;4.40;99.90
11840;DHT22;5979;50.800;4.904;2023-01-31T08:42:54;4.40;99.90
11840;DHT22;5979;50.800;4.904;2023-01-31T08:45:20;4.50;99.90
11840;DHT22;5979;50.800;4.904;2023-01-31T08:47:45;4.60;99.90
11840;DHT22;5979;50.800;4.904;2023-01-31T08:50:11;4.60;99.90
11840;DHT22;5979;50.800;4.904;2023-01-31T08:52:37;4.70;99.90
11840;DHT22;5979;50.800;4.904;2023-01-31T08:55:03;4.70;99.90
11840;DHT22;5979;50.800;4.904;2023-01-31T08:57:30;4.70;99.90
11840;DHT22;5979;50.800;4.904;2023-01-31T08:59:56;4.80;99.90
11840;DHT22;5979;50.800;4.904;2023-01-31T09:02:22;4.90;99.90
11840;DHT22;5979;50.800;4.904;2023-01-31T09:04:47;4.90;99.90
11840;DHT22;5979;50.800;4.904;2023-01-31T09:07:14;5.00;99.90
11840;DHT22;5979;50.800;4.904;2023-01-31T09:09:40;5.10;99.90
11840;DHT22;5979;50.800;4.904;2023-01-31T09:12:05;5.20;99.90
11840;DHT22;5979;50.800;4.904;2023-01-31T09:14:31;5.40;99.90
11840;DHT22;5979;50.800;4.904;2023-01-31T09:16:57;5.40;99.90
11840;DHT22;5979;50.800;4.904;2023-01-31T09:19:23;5.50;99.90
11840;DHT22;5979;50.800;4.904;2023-01-31T09:21:48;5.50;99.90
11840;DHT22;5979;50.800;4.904;2023-01-31T09:24:14;5.60;99.90
11840;DHT22;5979;50.800;4.904;2023-01-31T09:26:40;5.60;99.90
11840;DHT22;5979;50.800;4.904;2023-01-31T09:29:05;5.70;99.90
11840;DHT22;5979;50.800;4.904;2023-01-31T09:31:31;5.80;99.90
11840;DHT22;5979;50.800;4.904;2023-01-31T09:33:57;5.80;99.90
11840;DHT22;5979;50.800;4.904;2023-01-31T09:36:23;5.90;99.90
11840;DHT22;5979;50.800;4.904;2023-01-31T09:38:53;5.90;99.90
11840;DHT22;5979;50.800;4.904;2023-01-31T09:41:36;6.00;99.90
11840;DHT22;5979;50.800;4.904;2023-01-31T09:44:20;6.00;99.90
11840;DHT22;5979;50.800;4.904;2023-01-31T09:46:56;6.00;99.90
11840;DHT22;5979;50.800;4.904;2023-01-31T09:49:30;6.10;99.90
11840;DHT22;5979;50.800;4.904;2023-01-31T09:52:02;6.10;99.90
11840;DHT22;5979;50.800;4.904;2023-01-31T09:54:35;6.10;99.90
11840;DHT22;5979;50.800;4.904;2023-01-31T10:00:02;6.20;99.90
11840;DHT22;5979;50.800;4.904;2023-01-31T10:11:06;6.30;99.90
11840;DHT22;5979;50.800;4.904;2023-01-31T10:13:40;6.40;99.90
11840;DHT22;5979;50.800;4.904;2023-01-31T10:16:43;6.40;99.90
11840;DHT22;5979;50.800;4.904;2023-01-31T10:19:14;6.50;99.90
11840;DHT22;5979;50.800;4.904;2023-01-31T10:21:46;6.50;99.90
11840;DHT22;5979;50.800;4.904;2023-01-31T10:27:25;6.70;99.90
11840;DHT22;5979;50.800;4.904;2023-01-31T10:29:59;6.70;99.90
11840;DHT22;5979;50.800;4.904;2023-01-31T10:32:38;6.80;99.90
11840;DHT22;5979;50.800;4.904;2023-01-31T10:35:20;6.90;99.90
11840;DHT22;5979;50.800;4.904;2023-01-31T10:38:02;7.00;99.90
11840;DHT22;5979;50.800;4.904;2023-01-31T10:40:35;7.10;99.90
11840;DHT22;5979;50.800;4.904;2023-01-31T10:43:37;7.20;99.90
11840;DHT22;5979;50.800;4.904;2023-01-31T10:46:14;7.30;99.90
11840;DHT22;5979;50.800;4.904;2023-01-31T10:48:42;7.30;99.90
11840;DHT22;5979;50.800;4.904;2023-01-31T10:51:32;7.40;99.90
11840;DHT22;5979;50.800;4.904;2023-01-31T10:54:14;7.40;99.90
11840;DHT22;5979;50.800;4.904;2023-01-31T10:56:48;7.50;99.90
11840;DHT22;5979;50.800;4.904;2023-01-31T10:59:32;7.60;99.90
11840;DHT22;5979;50.800;4.904;2023-01-31T11:02:00;7.80;99.90
11840;DHT22;5979;50.800;4.904;2023-01-31T11:04:33;8.00;99.90
11840;DHT22;5979;50.800;4.904;2023-01-31T11:07:01;8.20;99.90
11840;DHT22;5979;50.800;4.904;2023-01-31T11:09:31;8.30;99.90
11840;DHT22;5979;50.800;4.904;2023-01-31T11:12:00;8.30;99.90
11840;DHT22;5979;50.800;4.904;2023-01-31T11:14:26;8.30;99.90
11840;DHT22;5979;50.800;4.904;2023-01-31T11:19:53;8.50;99.90
11840;DHT22;5979;50.800;4.904;2023-01-31T11:22:36;8.60;99.90
11840;DHT22;5979;50.800;4.904;2023-01-31T11:25:03;8.50;99.90
11840;DHT22;5979;50.800;4.904;2023-01-31T11:27:40;8.50;99.90
11840;DHT22;5979;50.800;4.904;2023-01-31T11:30:20;8.40;99.90
11840;DHT22;5979;50.800;4.904;2023-01-31T11:32:48;8.40;99.90
11840;DHT22;5979;50.800;4.904;2023-01-31T11:37:50;8.40;99.90
11840;DHT22;5979;50.800;4.904;2023-01-31T11:40:34;8.30;99.90
11840;DHT22;5979;50.800;4.904;2023-01-31T11:43:03;8.40;99.90
11840;DHT22;5979;50.800;4.904;2023-01-31T11:45:34;8.40;99.90
11840;DHT22;5979;50.800;4.904;2023-01-31T11:48:16;8.50;99.90
11840;DHT22;5979;50.800;4.904;2023-01-31T11:50:45;8.50;99.90
11840;DHT22;5979;50.800;4.904;2023-01-31T11:53:37;8.60;99.90
11840;DHT22;5979;50.800;4.904;2023-01-31T11:56:16;8.60;99.90
11840;DHT22;5979;50.800;4.904;2023-01-31T11:58:46;8.70;99.90
11840;DHT22;5979;50.800;4.904;2023-01-31T12:01:20;8.70;99.90
11840;DHT22;5979;50.800;4.904;2023-01-31T12:03:50;8.80;99.90
11840;DHT22;5979;50.800;4.904;2023-01-31T12:06:39;8.80;99.90
11840;DHT22;5979;50.800;4.904;2023-01-31T12:09:20;8.80;99.90
11840;DHT22;5979;50.800;4.904;2023-01-31T12:12:01;8.90;99.90
11840;DHT22;5979;50.800;4.904;2023-01-31T12:14:41;8.80;99.90
11840;DHT22;5979;50.800;4.904;2023-01-31T12:17:12;8.70;99.90
11840;DHT22;5979;50.800;4.904;2023-01-31T12:19:58;8.80;99.90
11840;DHT22;5979;50.800;4.904;2023-01-31T12:22:30;8.70;99.90
11840;DHT22;5979;50.800;4.904;2023-01-31T12:25:15;8.60;99.90
11840;DHT22;5979;50.800;4.904;2023-01-31T12:41:31;8.20;99.90
11840;DHT22;5979;50.800;4.904;2023-01-31T12:44:11;8.20;99.90
11840;DHT22;5979;50.800;4.904;2023-01-31T12:52:55;8.20;99.90
11840;DHT22;5979;50.800;4.904;2023-01-31T13:08:52;8.10;99.90
11840;DHT22;5979;50.800;4.904;2023-01-31T13:11:36;8.10;99.90
11840;DHT22;5979;50.800;4.904;2023-01-31T13:14:04;8.10;99.90
11840;DHT22;5979;50.800;4.904;2023-01-31T13:16:32;8.10;99.90
11840;DHT22;5979;50.800;4.904;2023-01-31T13:19:04;8.10;99.90
11840;DHT22;5979;50.800;4.904;2023-01-31T13:21:35;8.10;99.90
11840;DHT22;5979;50.800;4.904;2023-01-31T13:24:11;8.10;99.90
11840;DHT22;5979;50.800;4.904;2023-01-31T13:26:43;8.10;99.90
11840;DHT22;5979;50.800;4.904;2023-01-31T13:30:23;8.10;99.90
11840;DHT22;5979;50.800;4.904;2023-01-31T13:32:44;8.10;99.90
11840;DHT22;5979;50.800;4.904;2023-01-31T13:35:34;8.10;99.90
11840;DHT22;5979;50.800;4.904;2023-01-31T13:38:07;8.10;99.90
11840;DHT22;5979;50.800;4.904;2023-01-31T13:40:43;8.00;99.90
11840;DHT22;5979;50.800;4.904;2023-01-31T13:43:13;8.00;99.90
11840;DHT22;5979;50.800;4.904;2023-01-31T13:45:51;8.00;99.90
11840;DHT22;5979;50.800;4.904;2023-01-31T13:51:26;8.00;99.90
11840;DHT22;5979;50.800;4.904;2023-01-31T13:54:05;8.00;99.90
11840;DHT22;5979;50.800;4.904;2023-01-31T13:56:34;8.00;99.90
11840;DHT22;5979;50.800;4.904;2023-01-31T13:59:01;8.00;99.90
11840;DHT22;5979;50.800;4.904;2023-01-31T14:01:31;8.00;99.90
11840;DHT22;5979;50.800;4.904;2023-01-31T14:09:33;8.10;99.90
11840;DHT22;5979;50.800;4.904;2023-01-31T14:12:28;8.10;99.90
11840;DHT22;5979;50.800;4.904;2023-01-31T14:14:54;8.10;99.90
11840;DHT22;5979;50.800;4.904;2023-01-31T14:27:19;8.20;99.90
11840;DHT22;5979;50.800;4.904;2023-01-31T14:29:47;8.10;99.90
11840;DHT22;5979;50.800;4.904;2023-01-31T14:32:28;8.20;99.90
11840;DHT22;5979;50.800;4.904;2023-01-31T14:34:56;8.20;99.90
11840;DHT22;5979;50.800;4.904;2023-01-31T14:40:19;8.20;99.90
11840;DHT22;5979;50.800;4.904;2023-01-31T14:57:53;8.20;99.90
11840;DHT22;5979;50.800;4.904;2023-01-31T15:00:23;8.10;99.90
11840;DHT22;5979;50.800;4.904;2023-01-31T15:02:59;8.10;99.90
11840;DHT22;5979;50.800;4.904;2023-01-31T15:11:03;8.00;99.90
11840;DHT22;5979;50.800;4.904;2023-01-31T15:13:49;8.00;99.90
11840;DHT22;5979;50.800;4.904;2023-01-31T15:16:32;8.00;99.90
11840;DHT22;5979;50.800;4.904;2023-01-31T15:21:30;7.90;99.90
11840;DHT22;5979;50.800;4.904;2023-01-31T15:23:57;7.90;99.90
11840;DHT22;5979;50.800;4.904;2023-01-31T15:26:27;7.90;99.90
11840;DHT22;5979;50.800;4.904;2023-01-31T15:28:53;7.90;99.90
11840;DHT22;5979;50.800;4.904;2023-01-31T15:31:39;7.90;99.90
11840;DHT22;5979;50.800;4.904;2023-01-31T15:34:15;7.90;99.90
11840;DHT22;5979;50.800;4.904;2023-01-31T15:37:08;7.80;99.90
11840;DHT22;5979;50.800;4.904;2023-01-31T15:39:47;7.80;99.90
11840;DHT22;5979;50.800;4.904;2023-01-31T15:42:33;7.80;99.90
11840;DHT22;5979;50.800;4.904;2023-01-31T15:48:00;7.80;99.90
11840;DHT22;5979;50.800;4.904;2023-01-31T15:50:29;7.90;99.90
11840;DHT22;5979;50.800;4.904;2023-01-31T15:52:56;7.90;99.90
11840;DHT22;5979;50.800;4.904;2023-01-31T15:55:22;8.00;99.90
11840;DHT22;5979;50.800;4.904;2023-01-31T15:57:53;8.00;99.90
11840;DHT22;5979;50.800;4.904;2023-01-31T16:02:50;8.10;99.90
11840;DHT22;5979;50.800;4.904;2023-01-31T16:05:26;8.10;99.90
11840;DHT22;5979;50.800;4.904;2023-01-31T16:07:52;8.10;99.90
11840;DHT22;5979;50.800;4.904;2023-01-31T16:10:18;8.20;99.90
11840;DHT22;5979;50.800;4.904;2023-01-31T16:12:48;8.20;99.90
11840;DHT22;5979;50.800;4.904;2023-01-31T16:15:26;8.20;99.90
11840;DHT22;5979;50.800;4.904;2023-01-31T16:17:54;8.20;99.90
11840;DHT22;5979;50.800;4.904;2023-01-31T16:23:01;8.20;99.90
11840;DHT22;5979;50.800;4.904;2023-01-31T16:25:28;8.20;99.90
11840;DHT22;5979;50.800;4.904;2023-01-31T16:27:54;8.20;99.90
11840;DHT22;5979;50.800;4.904;2023-01-31T16:30:26;8.20;99.90
11840;DHT22;5979;50.800;4.904;2023-01-31T16:32:53;8.20;99.90
11840;DHT22;5979;50.800;4.904;2023-01-31T16:35:28;8.20;99.90
11840;DHT22;5979;50.800;4.904;2023-01-31T16:38:19;8.10;99.90
11840;DHT22;5979;50.800;4.904;2023-01-31T16:40:52;8.10;99.90
11840;DHT22;5979;50.800;4.904;2023-01-31T16:43:23;8.10;99.90
11840;DHT22;5979;50.800;4.904;2023-01-31T16:45:54;8.10;99.90
11840;DHT22;5979;50.800;4.904;2023-01-31T16:50:52;8.10;99.90
11840;DHT22;5979;50.800;4.904;2023-01-31T16:58:51;8.10;99.90
11840;DHT22;5979;50.800;4.904;2023-01-31T17:01:29;8.10;99.90
11840;DHT22;5979;50.800;4.904;2023-01-31T17:06:33;8.00;99.90
11840;DHT22;5979;50.800;4.904;2023-01-31T17:09:00;8.00;99.90
11840;DHT22;5979;50.800;4.904;2023-01-31T17:11:26;8.00;99.90
11840;DHT22;5979;50.800;4.904;2023-01-31T17:13:51;8.10;99.90
11840;DHT22;5979;50.800;4.904;2023-01-31T17:16:22;8.10;99.90
11840;DHT22;5979;50.800;4.904;2023-01-31T17:18:52;8.00;99.90
11840;DHT22;5979;50.800;4.904;2023-01-31T17:21:22;8.00;99.90
11840;DHT22;5979;50.800;4.904;2023-01-31T17:23:49;8.00;99.90
11840;DHT22;5979;50.800;4.904;2023-01-31T17:26:16;8.00;99.90
11840;DHT22;5979;50.800;4.904;2023-01-31T17:28:42;8.00;99.90
11840;DHT22;5979;50.800;4.904;2023-01-31T17:31:23;8.00;99.90
11840;DHT22;5979;50.800;4.904;2023-01-31T17:33:52;8.00;99.90
11840;DHT22;5979;50.800;4.904;2023-01-31T17:36:18;8.00;99.90
11840;DHT22;5979;50.800;4.904;2023-01-31T17:38:44;8.00;99.90
11840;DHT22;5979;50.800;4.904;2023-01-31T17:41:15;8.00;99.90
11840;DHT22;5979;50.800;4.904;2023-01-31T17:43:42;8.00;99.90
11840;DHT22;5979;50.800;4.904;2023-01-31T17:46:12;8.10;99.90
11840;DHT22;5979;50.800;4.904;2023-01-31T17:48:38;8.00;99.90
11840;DHT22;5979;50.800;4.904;2023-01-31T17:51:04;8.00;99.90
11840;DHT22;5979;50.800;4.904;2023-01-31T17:53:30;8.10;99.90
11840;DHT22;5979;50.800;4.904;2023-01-31T17:55:56;8.10;99.90
11840;DHT22;5979;50.800;4.904;2023-01-31T17:58:21;8.10;99.90
11840;DHT22;5979;50.800;4.904;2023-01-31T18:00:47;8.10;99.90
11840;DHT22;5979;50.800;4.904;2023-01-31T18:03:18;8.00;99.90
11840;DHT22;5979;50.800;4.904;2023-01-31T18:05:44;8.10;99.90
11840;DHT22;5979;50.800;4.904;2023-01-31T18:08:11;8.00;99.90
11840;DHT22;5979;50.800;4.904;2023-01-31T18:10:38;8.10;99.90
11840;DHT22;5979;50.800;4.904;2023-01-31T18:13:04;8.00;99.90
11840;DHT22;5979;50.800;4.904;2023-01-31T18:15:30;8.00;99.90
11840;DHT22;5979;50.800;4.904;2023-01-31T18:17:56;8.00;99.90
11840;DHT22;5979;50.800;4.904;2023-01-31T18:20:22;8.00;99.90
11840;DHT22;5979;50.800;4.904;2023-01-31T18:22:48;8.00;99.90
11840;DHT22;5979;50.800;4.904;2023-01-31T18:25:13;8.00;99.90
11840;DHT22;5979;50.800;4.904;2023-01-31T18:27:39;8.00;99.90
11840;DHT22;5979;50.800;4.904;2023-01-31T18:30:06;8.00;99.90
11840;DHT22;5979;50.800;4.904;2023-01-31T18:32:32;8.00;99.90
11840;DHT22;5979;50.800;4.904;2023-01-31T18:34:58;8.00;99.90
11840;DHT22;5979;50.800;4.904;2023-01-31T18:37:24;8.00;99.90
11840;DHT22;5979;50.800;4.904;2023-01-31T18:39:51;8.00;99.90
11840;DHT22;5979;50.800;4.904;2023-01-31T18:42:18;8.00;99.90
11840;DHT22;5979;50.800;4.904;2023-01-31T18:44:44;8.00;99.90
11840;DHT22;5979;50.800;4.904;2023-01-31T18:47:11;7.90;99.90
11840;DHT22;5979;50.800;4.904;2023-01-31T18:49:37;7.90;99.90
11840;DHT22;5979;50.800;4.904;2023-01-31T18:52:03;7.90;99.90